| Date | Time | Temp. (oF) | Dew Point (oF) | Rel. Hum. (%) | Press. (in.) | Wind Dir. (deg.) | Wind Speed (mph) | Hourly Rainfall (i n.) |
|
|---|---|---|---|---|---|---|---|---|---|
| 1 | 10/19 | 24:00 | 47 | 36 | 66 | 30.42 | 10 | 0 | 0.00 |
| 2 | 10/18 | 23:00 | 49 | 36 | 63 | 30.41 | 10 | 0 | 0.00 |
| 3 | 10/18 | 22:00 | 51 | 37 | 61 | 30.39 | 10 | 0 | 0.00 |
| 4 | 10/18 | 21:00 | 52 | 37 | 58 | 30.37 | 50 | 1 | 0.00 |
| 5 | 10/18 | 20:00 | 53 | 38 | 58 | 30.34 | 30 | 1 | 0.00 |
| 6 | 10/18 | 19:00 | 55 | 37 | 51 | 30.32 | 10 | 2 | 0.00 |
| 7 | 10/18 | 18:00 | 57 | 36 | 47 | 30.31 | 330 | 4 | 0.00 |
| 8 | 10/18 | 17:00 | 58 | 37 | 47 | 30.27 | 330 | 10 | 0.00 |
| 9 | 10/18 | 16:00 | 60 | 39 | 47 | 30.23 | 280 | 11 | 0.00 |
| 10 | 10/18 | 15:00 | 60 | 38 | 45 | 30.21 | 10 | 7 | 0.00 |
| 11 | 10/18 | 14:00 | 60 | 40 | 48 | 30.17 | 240 | 7 | 0.00 |
| 12 | 10/18 | 13:00 | 59 | 40 | 51 | 30.14 | 360 | 12 | 0.00 |
| 13 | 10/18 | 12:00 | 58 | 41 | 54 | 30.12 | 10 | 10 | 0.00 |
| 14 | 10/18 | 11:00 | 56 | 39 | 55 | 30.10 | 280 | 10 | 0.00 |
| 15 | 10/18 | 10:00 | 54 | 40 | 61 | 30.08 | 330 | 7 | 0.00 |
| 16 | 10/18 | 09:00 | 53 | 42 | 67 | 30.05 | 310 | 10 | 0.00 |
| 17 | 10/18 | 08:00 | 53 | 44 | 73 | 30.01 | 340 | 7 | 0.00 |
| 18 | 10/18 | 07:00 | 53 | 46 | 79 | 29.97 | 290 | 7 | 0.00 |
| 19 | 10/18 | 06:00 | 54 | 47 | 79 | 29.95 | 340 | 6 | 0.00 |
| 20 | 10/18 | 05:00 | 55 | 49 | 82 | 29.93 | 250 | 10 | 0.00 |
| 21 | 10/18 | 04:00 | 56 | 51 | 86 | 29.93 | 340 | 7 | 0.00 |
| 22 | 10/18 | 03:00 | 58 | 54 | 89 | 29.93 | 280 | 9 | 0.00 |
| 23 | 10/18 | 02:00 | 61 | 59 | 94 | 29.91 | 330 | 7 | 0.00 |
| 24 | 10/18 | 01:00 | 61 | 59 | 95 | 29.92 | 20 | 1 | 0.01 |